Time;durP1;ratioP1;P1;durP2;ratioP2;P2;SDS_P1;SDS_P2;PMS_P1;PMS_P2;Temp;Humidity;BMP_temperature;BMP_pressure;BME280_temperature;BME280_humidity;BME280_pressure;Samples;Min_cycle;Max_cycle;Signal;HPM_P1;HPM_P2
2021/06/07 00:02:04;;;;;;;8.13;6.22;;;;;;;13.89;76.88;99350.06;4998554;28;20482;-71
2021/06/07 00:04:30;;;;;;;8.75;6.20;;;;;;;13.88;77.11;99359.88;4993686;28;20041;-71
2021/06/07 00:06:59;;;;;;;10.15;6.03;;;;;;;13.89;77.18;99363.34;5011443;28;20439;-74
2021/06/07 00:09:26;;;;;;;10.63;6.82;;;;;;;13.85;77.28;99360.16;5011181;28;20446;-71
2021/06/07 00:11:55;;;;;;;10.27;6.50;;;;;;;13.83;77.72;99361.28;5012213;28;20083;-73
2021/06/07 00:14:30;;;;;;;10.07;7.00;;;;;;;13.79;78.10;99365.22;5008602;28;20116;-70
2021/06/07 00:16:57;;;;;;;10.70;7.18;;;;;;;13.78;77.91;99367.03;4995321;28;20191;-74
2021/06/07 00:19:23;;;;;;;11.68;7.07;;;;;;;13.77;77.95;99356.56;5008703;28;20034;-73
2021/06/07 00:21:50;;;;;;;11.20;7.38;;;;;;;13.78;78.00;99363.53;5013248;28;20037;-73
2021/06/07 00:24:17;;;;;;;10.43;6.88;;;;;;;13.79;78.09;99370.53;5011773;28;20117;-72
2021/06/07 00:26:44;;;;;;;10.13;6.45;;;;;;;13.82;78.19;99367.56;5008592;28;20486;-70
2021/06/07 00:29:10;;;;;;;10.35;6.90;;;;;;;13.85;78.05;99359.31;5001199;28;20048;-73
2021/06/07 00:31:37;;;;;;;9.57;6.85;;;;;;;13.87;77.61;99360.03;5012561;28;20037;-76
2021/06/07 00:34:03;;;;;;;9.27;6.80;;;;;;;13.90;77.50;99370.34;5005282;28;20475;-75
2021/06/07 00:36:30;;;;;;;7.22;5.93;;;;;;;13.89;77.60;99360.69;4996742;28;20394;-69
2021/06/07 00:38:56;;;;;;;8.73;6.15;;;;;;;13.88;77.68;99369.66;5012829;28;20026;-69
2021/06/07 00:41:23;;;;;;;7.78;6.15;;;;;;;13.86;78.00;99371.63;5010573;28;20029;-70
2021/06/07 00:43:57;;;;;;;7.75;6.07;;;;;;;13.82;78.20;99375.56;5000126;28;20139;-72
2021/06/07 00:46:23;;;;;;;8.43;6.43;;;;;;;13.78;78.23;99363.53;5007508;28;20053;-71
2021/06/07 00:48:49;;;;;;;7.60;5.68;;;;;;;13.75;78.47;99365.50;5002989;28;20339;-70
2021/06/07 00:51:15;;;;;;;8.27;5.80;;;;;;;13.74;78.34;99366.50;5005164;28;20042;-70
2021/06/07 00:53:41;;;;;;;8.15;6.50;;;;;;;13.72;78.76;99371.13;5005973;28;20034;-71
2021/06/07 00:56:09;;;;;;;12.30;7.88;;;;;;;13.71;78.72;99374.75;5004275;28;20104;-69
2021/06/07 00:58:38;;;;;;;9.55;6.70;;;;;;;13.69;78.93;99366.09;4997320;28;20480;-72
2021/06/07 01:01:06;;;;;;;9.77;6.60;;;;;;;13.69;79.08;99370.56;5002645;28;20117;-72
2021/06/07 01:03:33;;;;;;;11.05;7.22;;;;;;;13.68;79.00;99375.06;5003221;28;20121;-70
2021/06/07 01:05:59;;;;;;;10.00;7.50;;;;;;;13.68;79.41;99372.41;4996989;28;20073;-70
2021/06/07 01:08:25;;;;;;;11.77;7.65;;;;;;;13.67;79.29;99373.38;5008642;28;20030;-70
2021/06/07 01:10:52;;;;;;;11.43;7.32;;;;;;;13.69;79.35;99368.75;4998603;28;20038;-71
2021/06/07 01:13:19;;;;;;;11.30;8.75;;;;;;;13.69;79.40;99371.41;4992846;28;20080;-70
2021/06/07 01:15:47;;;;;;;12.98;8.50;;;;;;;13.72;79.42;99376.44;5010451;28;20030;-71
2021/06/07 01:18:15;;;;;;;13.75;10.13;;;;;;;13.76;79.43;99374.34;5012042;28;20034;-69
2021/06/07 01:20:42;;;;;;;11.65;9.85;;;;;;;13.78;79.66;99366.19;4993615;28;20034;-70
2021/06/07 01:23:08;;;;;;;13.80;10.27;;;;;;;13.80;79.91;99372.22;4993352;28;20030;-69
2021/06/07 01:25:37;;;;;;;17.20;10.35;;;;;;;13.82;79.72;99370.22;5011725;28;20374;-74
2021/06/07 01:28:04;;;;;;;15.75;10.68;;;;;;;13.83;79.80;99369.25;5009954;28;20041;-70
2021/06/07 01:30:34;;;;;;;16.77;11.52;;;;;;;13.86;79.45;99364.47;5002032;28;20038;-71
2021/06/07 01:33:00;;;;;;;20.60;12.02;;;;;;;13.87;79.71;99363.50;5008348;28;20044;-71
2021/06/07 01:35:26;;;;;;;20.27;13.00;;;;;;;13.89;79.90;99366.00;5008520;28;20052;-72
2021/06/07 01:37:54;;;;;;;23.55;15.20;;;;;;;13.93;79.70;99372.69;5000980;28;20045;-69
2021/06/07 01:40:21;;;;;;;;;;;;;;;13.91;79.88;99364.03;4992867;28;20038;-68
2021/06/07 01:42:47;;;;;;;27.90;19.27;;;;;;;13.95;79.72;99360.09;5002031;28;19913;-69
2021/06/07 01:45:15;;;;;;;29.35;22.00;;;;;;;13.98;79.80;99370.47;5009272;28;20030;-72
2021/06/07 01:47:41;;;;;;;30.67;23.05;;;;;;;14.00;79.78;99357.81;4992516;28;20042;-71
2021/06/07 01:50:10;;;;;;;30.23;22.52;;;;;;;14.03;79.57;99360.22;5008482;28;20069;-74
2021/06/07 01:52:43;;;;;;;31.05;21.80;;;;;;;14.04;79.70;99367.22;5011911;28;20034;-73
2021/06/07 01:55:29;;;;;;;25.13;17.75;;;;;;;14.08;79.41;99360.59;4992287;28;20035;-72
2021/06/07 01:57:55;;;;;;;29.55;20.20;;;;;;;14.11;79.02;99363.94;5010446;28;20045;-73
2021/06/07 02:00:33;;;;;;;24.10;18.02;;;;;;;14.11;78.94;99363.94;5007368;28;20060;-71
2021/06/07 02:02:59;;;;;;;23.80;18.17;;;;;;;14.16;78.98;99367.00;4992973;28;20038;-70
2021/06/07 02:05:27;;;;;;;27.10;18.63;;;;;;;14.33;78.59;99368.84;4994895;28;20094;-70
2021/06/07 02:07:56;;;;;;;28.25;19.02;;;;;;;14.50;77.98;99369.00;5012937;28;20042;-69
2021/06/07 02:10:26;;;;;;;27.50;19.17;;;;;;;14.70;77.74;99367.91;5011616;28;20049;-71
2021/06/07 02:12:52;;;;;;;25.80;19.25;;;;;;;14.86;76.85;99364.53;5009381;28;20371;-71
2021/06/07 02:15:18;;;;;;;28.80;19.88;;;;;;;14.99;76.43;99364.16;5011113;28;20034;-71
2021/06/07 02:17:44;;;;;;;26.92;19.60;;;;;;;15.07;76.07;99365.22;5002125;28;20475;-71
2021/06/07 02:20:14;;;;;;;28.35;20.52;;;;;;;15.06;75.93;99363.53;5013279;28;20042;-77
2021/06/07 02:22:42;;;;;;;28.13;21.40;;;;;;;14.96;76.29;99361.78;5014142;28;20048;-69
2021/06/07 02:25:09;;;;;;;30.55;22.20;;;;;;;14.90;76.31;99367.72;5012657;28;20038;-70
2021/06/07 02:27:35;;;;;;;32.10;22.60;;;;;;;14.89;76.49;99360.72;5013058;28;20501;-73
2021/06/07 02:30:05;;;;;;;29.80;22.42;;;;;;;14.94;76.34;99366.44;5012951;28;20029;-73
2021/06/07 02:32:31;;;;;;;30.10;21.92;;;;;;;14.96;76.33;99359.13;5003679;28;20033;-71
2021/06/07 02:34:56;;;;;;;31.20;22.55;;;;;;;14.99;75.96;99366.81;4994729;28;20029;-72
2021/06/07 02:37:22;;;;;;;28.77;20.85;;;;;;;15.08;75.67;99372.19;5012674;28;20034;-71
2021/06/07 02:39:49;;;;;;;29.25;21.40;;;;;;;15.07;75.63;99376.69;5012810;28;20030;-76
2021/06/07 02:42:16;;;;;;;31.95;20.17;;;;;;;15.11;75.37;99372.72;5016599;28;20034;-72
2021/06/07 02:44:42;;;;;;;33.75;20.88;;;;;;;15.11;75.16;99363.91;5002942;28;20053;-74
2021/06/07 02:47:09;;;;;;;28.17;20.35;;;;;;;15.23;75.16;99367.97;4996006;28;20096;-73
2021/06/07 02:49:34;;;;;;;29.35;21.48;;;;;;;15.32;74.50;99375.03;4994710;28;20034;-69
2021/06/07 02:52:01;;;;;;;30.55;21.15;;;;;;;15.39;74.21;99375.25;4995623;28;20427;-70
2021/06/07 02:54:27;;;;;;;26.27;20.35;;;;;;;15.46;74.03;99375.44;5010261;28;20371;-73
2021/06/07 02:56:53;;;;;;;32.60;21.08;;;;;;;15.57;73.49;99383.16;5012942;28;20030;-70
2021/06/07 02:59:18;;;;;;;30.83;21.17;;;;;;;15.67;73.34;99378.56;5011606;28;20042;-70
2021/06/07 03:01:44;;;;;;;27.50;20.60;;;;;;;15.87;72.78;99380.19;4995050;28;20041;-74
2021/06/07 03:04:11;;;;;;;31.48;21.90;;;;;;;16.16;71.77;99371.78;5001267;28;20041;-72
2021/06/07 03:06:37;;;;;;;31.73;21.70;;;;;;;16.33;71.01;99368.16;5011623;28;20058;-71
2021/06/07 03:09:04;;;;;;;30.10;22.20;;;;;;;16.39;70.98;99371.19;5010893;28;20065;-72
2021/06/07 03:11:30;;;;;;;31.80;21.55;;;;;;;16.48;70.58;99370.19;5014248;28;20344;-72
2021/06/07 03:13:56;;;;;;;27.42;21.10;;;;;;;16.39;70.70;99374.69;5012576;28;20046;-71
2021/06/07 03:16:22;;;;;;;30.95;20.90;;;;;;;16.46;70.62;99378.38;5004219;28;20034;-74
2021/06/07 03:18:48;;;;;;;27.08;20.70;;;;;;;16.42;70.43;99374.34;4995474;28;20693;-73
2021/06/07 03:21:14;;;;;;;31.13;20.08;;;;;;;16.44;70.17;99368.88;4995054;28;20052;-70
2021/06/07 03:23:40;;;;;;;26.92;19.63;;;;;;;16.41;70.13;99366.50;4996754;28;20033;-73
2021/06/07 03:26:06;;;;;;;23.65;17.90;;;;;;;16.39;70.30;99368.53;4997047;28;20049;-69
2021/06/07 03:28:33;;;;;;;24.23;16.83;;;;;;;16.39;70.00;99365.88;4995131;28;20104;-74
2021/06/07 03:31:00;;;;;;;23.57;17.03;;;;;;;16.44;69.83;99368.88;4994368;28;20046;-72
2021/06/07 03:33:26;;;;;;;18.85;15.20;;;;;;;16.49;69.72;99371.88;5012364;28;20045;-69
2021/06/07 03:35:55;;;;;;;19.02;14.43;;;;;;;16.54;69.14;99363.38;5008496;28;20029;-71
2021/06/07 03:38:21;;;;;;;18.75;13.40;;;;;;;16.68;68.81;99361.88;5003534;28;20038;-74
2021/06/07 03:40:49;;;;;;;17.95;13.35;;;;;;;16.68;68.42;99362.72;4994493;28;20122;-75
2021/06/07 03:43:14;;;;;;;;;;;;;;;16.76;68.38;99361.88;4998582;28;20038;-71
2021/06/07 03:45:41;;;;;;;17.17;12.52;;;;;;;16.89;67.84;99362.22;4993492;28;19956;-71
2021/06/07 03:48:07;;;;;;;16.85;11.02;;;;;;;17.10;67.24;99363.59;4998559;28;20530;-70
2021/06/07 03:50:35;;;;;;;15.25;10.95;;;;;;;17.29;66.44;99368.56;5001759;28;20040;-71
2021/06/07 03:53:02;;;;;;;16.05;11.10;;;;;;;17.44;65.51;99371.38;5009661;28;20077;-72
2021/06/07 03:55:29;;;;;;;16.63;10.13;;;;;;;17.61;65.05;99372.16;5000126;28;20034;-72
2021/06/07 03:57:56;;;;;;;12.68;9.23;;;;;;;17.80;64.43;99375.47;5004166;28;20403;-70
2021/06/07 04:00:26;;;;;;;13.88;8.65;;;;;;;18.10;63.51;99370.34;4995537;28;20088;-71
2021/06/07 04:02:52;;;;;;;12.70;9.20;;;;;;;18.31;62.60;99374.28;4998963;28;20085;-73
2021/06/07 04:05:18;;;;;;;11.68;8.70;;;;;;;18.47;62.41;99374.16;4994486;28;20089;-72
2021/06/07 04:07:44;;;;;;;10.50;8.88;;;;;;;18.80;61.65;99370.41;4994042;28;20050;-72
2021/06/07 04:10:13;;;;;;;13.10;9.15;;;;;;;19.03;60.80;99370.44;4999388;28;20088;-71
2021/06/07 04:12:40;;;;;;;12.93;9.90;;;;;;;19.11;60.52;99366.84;5001638;28;20100;-72
2021/06/07 04:15:28;;;;;;;17.98;11.60;;;;;;;18.76;60.95;99375.28;4991818;28;20042;-73
2021/06/07 04:17:55;;;;;;;17.42;12.90;;;;;;;18.74;61.39;99378.16;5001619;28;20513;-75
2021/06/07 04:20:23;;;;;;;16.07;10.87;;;;;;;19.29;60.17;99374.53;5007038;28;20096;-72
2021/06/07 04:22:49;;;;;;;13.27;10.18;;;;;;;20.50;56.94;99377.81;5001640;28;20026;-73
2021/06/07 04:25:17;;;;;;;13.30;9.20;;;;;;;20.78;55.46;99374.38;5006586;28;20081;-70
2021/06/07 04:27:43;;;;;;;;;;;;;;;21.17;54.61;99378.44;5008137;28;20045;-74
2021/06/07 04:30:11;;;;;;;13.43;8.90;;;;;;;22.06;53.09;99370.72;5011850;28;19920;-73
2021/06/07 04:32:38;;;;;;;15.73;9.48;;;;;;;23.32;49.36;99373.06;5011925;28;20427;-71
2021/06/07 04:35:06;;;;;;;15.60;7.85;;;;;;;24.63;46.79;99365.69;5003097;28;20085;-73
2021/06/07 04:37:39;;;;;;;11.35;7.10;;;;;;;24.90;45.50;99368.25;4991945;28;20471;-77
2021/06/07 04:40:05;;;;;;;10.23;7.47;;;;;;;23.46;47.46;99373.84;5004797;28;20703;-72
2021/06/07 04:42:31;;;;;;;12.65;8.48;;;;;;;22.54;49.41;99372.56;5011716;28;20064;-76
2021/06/07 04:44:57;;;;;;;11.88;9.02;;;;;;;22.17;50.53;99373.84;5008882;28;20069;-77
2021/06/07 04:47:23;;;;;;;12.65;9.55;;;;;;;22.09;50.83;99375.72;4992338;28;20045;-75
2021/06/07 04:49:49;;;;;;;9.18;7.15;;;;;;;22.96;49.13;99368.88;4999978;28;20548;-75
2021/06/07 04:52:14;;;;;;;12.35;6.93;;;;;;;24.30;46.67;99372.16;4991828;28;20035;-73
2021/06/07 04:54:40;;;;;;;12.75;8.98;;;;;;;24.23;45.93;99371.34;4993606;28;20076;-70
2021/06/07 04:57:07;;;;;;;10.65;7.38;;;;;;;24.24;45.37;99364.91;4992604;28;20038;-71
2021/06/07 04:59:32;;;;;;;9.13;6.60;;;;;;;23.92;46.45;99374.81;4996783;28;20038;-72
2021/06/07 05:01:59;;;;;;;15.27;7.25;;;;;;;25.47;44.18;99361.94;4992666;28;20125;-73
2021/06/07 05:04:24;;;;;;;10.35;6.97;;;;;;;27.10;40.66;99365.84;4992345;28;20044;-72
2021/06/07 05:06:50;;;;;;;10.93;6.88;;;;;;;27.96;37.87;99370.75;4993820;28;20042;-74
2021/06/07 05:09:16;;;;;;;9.55;6.90;;;;;;;29.51;36.04;99360.72;4996053;28;20110;-73
2021/06/07 05:11:42;;;;;;;14.20;7.25;;;;;;;30.09;34.91;99365.81;4992428;28;20062;-73
2021/06/07 05:14:08;;;;;;;9.25;6.22;;;;;;;31.34;32.25;99365.06;4992776;28;20042;-72
2021/06/07 05:16:33;;;;;;;9.10;5.95;;;;;;;32.01;32.07;99368.16;4992240;28;20030;-71
2021/06/07 05:18:59;;;;;;;11.48;6.20;;;;;;;31.82;32.10;99359.63;5018433;28;20048;-77
2021/06/07 05:21:25;;;;;;;9.90;6.45;;;;;;;32.50;30.97;99364.19;5006393;28;20029;-71
2021/06/07 05:23:51;;;;;;;12.52;7.68;;;;;;;32.37;30.66;99366.38;4992420;28;20046;-75
2021/06/07 05:26:16;;;;;;;11.82;6.45;;;;;;;33.16;30.38;99362.59;4991927;28;20046;-73
2021/06/07 05:28:42;;;;;;;15.07;6.90;;;;;;;33.80;28.65;99363.03;5007307;28;20042;-73
2021/06/07 05:31:08;;;;;;;11.57;6.17;;;;;;;33.84;28.14;99355.88;4992138;28;20476;-72
2021/06/07 05:33:34;;;;;;;8.73;5.73;;;;;;;33.12;28.50;99358.78;4998925;28;20521;-72
2021/06/07 05:36:00;;;;;;;7.90;5.63;;;;;;;33.10;29.05;99363.69;5004564;28;20128;-73
2021/06/07 05:38:26;;;;;;;7.43;4.57;;;;;;;32.93;28.51;99361.25;5010997;28;20336;-73
2021/06/07 05:40:54;;;;;;;7.50;4.70;;;;;;;33.06;28.45;99367.00;4991959;28;20064;-72
2021/06/07 05:43:23;;;;;;;6.72;4.18;;;;;;;33.84;27.49;99355.88;4991883;28;20428;-72
2021/06/07 05:45:51;;;;;;;5.05;3.60;;;;;;;34.15;27.18;99355.75;5006752;28;20116;-72
2021/06/07 05:48:17;;;;;;;7.78;6.72;;;;;;;33.61;27.04;99358.16;5011412;28;20418;-74
2021/06/07 05:50:43;;;;;;;4.22;2.30;;;;;;;33.76;27.56;99353.69;4994045;28;20156;-73
2021/06/07 05:53:12;;;;;;;4.30;2.40;;;;;;;34.72;26.06;99355.38;4997207;28;20045;-74
2021/06/07 05:55:41;;;;;;;3.85;1.92;;;;;;;35.71;24.28;99359.66;5014351;28;20045;-73
2021/06/07 05:58:16;;;;;;;4.03;2.45;;;;;;;35.82;24.70;99354.84;5015692;28;20483;-71
2021/06/07 06:00:45;;;;;;;7.07;2.35;;;;;;;35.44;24.60;99360.25;5004980;28;20041;-76
2021/06/07 06:03:10;;;;;;;5.85;2.10;;;;;;;34.67;25.33;99357.06;5003716;28;20042;-74
2021/06/07 06:05:37;;;;;;;6.68;3.10;;;;;;;34.05;26.84;99353.03;5008352;28;20044;-74
2021/06/07 06:08:05;;;;;;;6.63;2.75;;;;;;;33.79;27.00;99364.91;5015101;28;20034;-74
2021/06/07 06:10:31;;;;;;;3.97;2.33;;;;;;;33.16;27.71;99368.06;5013503;28;20088;-74
2021/06/07 06:12:57;;;;;;;3.37;2.47;;;;;;;31.69;29.66;99372.69;5013430;28;20061;-74
2021/06/07 06:15:24;;;;;;;4.90;2.27;;;;;;;30.86;31.17;99362.25;5005345;28;20065;-75
2021/06/07 06:17:51;;;;;;;4.22;2.60;;;;;;;29.96;32.34;99361.59;5001126;28;20034;-77
2021/06/07 06:20:17;;;;;;;;;;;;;;;29.35;33.52;99369.75;5006765;28;20036;-74
2021/06/07 06:22:43;;;;;;;6.78;3.40;;;;;;;29.48;33.64;99357.66;5002036;28;20004;-73
2021/06/07 06:25:10;;;;;;;4.18;3.05;;;;;;;31.70;30.39;99357.94;5009068;28;20041;-73
2021/06/07 06:27:36;;;;;;;7.18;4.18;;;;;;;30.22;31.94;99361.88;5007417;28;20212;-75
2021/06/07 06:30:11;;;;;;;7.50;4.35;;;;;;;28.14;35.69;99358.94;5012351;28;20387;-81
2021/06/07 06:32:38;;;;;;;7.07;3.53;;;;;;;29.47;33.66;99356.84;5005070;28;20424;-74
2021/06/07 06:35:04;;;;;;;5.97;2.92;;;;;;;31.50;30.88;99344.13;5005225;28;20043;-75
2021/06/07 06:37:30;;;;;;;7.97;2.88;;;;;;;34.10;27.76;99339.31;5005575;28;20049;-74
2021/06/07 06:39:56;;;;;;;4.70;2.50;;;;;;;34.61;26.32;99349.97;5004139;28;20034;-75
2021/06/07 06:42:22;;;;;;;4.30;2.10;;;;;;;32.21;29.22;99359.22;5002976;28;20030;-78
2021/06/07 06:44:48;;;;;;;2.70;2.50;;;;;;;32.66;28.74;99346.72;5005203;28;20088;-76
2021/06/07 06:47:13;;;;;;;3.50;2.30;;;;;;;32.29;29.33;99353.22;5003483;28;20423;-75
2021/06/07 06:49:39;;;;;;;2.73;1.90;;;;;;;33.61;27.19;99349.91;5006449;28;20361;-74
2021/06/07 06:52:06;;;;;;;2.00;1.70;;;;;;;32.82;28.51;99361.25;5002607;28;20091;-74
2021/06/07 06:54:32;;;;;;;2.92;1.90;;;;;;;34.50;26.33;99348.41;5003651;28;20351;-76
2021/06/07 06:56:58;;;;;;;3.13;2.00;;;;;;;35.34;25.43;99344.63;5001774;28;20475;-74
2021/06/07 06:59:23;;;;;;;2.87;2.63;;;;;;;36.34;24.01;99348.66;4999924;28;20289;-73
2021/06/07 07:01:49;;;;;;;4.72;2.90;;;;;;;36.37;23.94;99348.09;5015561;28;20086;-77
2021/06/07 07:04:21;;;;;;;3.10;2.55;;;;;;;35.82;23.93;99354.84;4993802;28;20468;-77
2021/06/07 07:06:47;;;;;;;4.72;3.03;;;;;;;34.75;25.02;99352.06;4994753;28;20046;-76
2021/06/07 07:09:13;;;;;;;5.25;2.38;;;;;;;34.85;25.44;99349.22;4997250;28;20034;-76
2021/06/07 07:11:39;;;;;;;4.40;2.50;;;;;;;35.95;24.89;99354.16;5011501;28;20032;-73
2021/06/07 07:14:05;;;;;;;3.73;2.43;;;;;;;35.26;25.09;99354.34;4994852;28;20042;-74
2021/06/07 07:16:31;;;;;;;3.00;2.60;;;;;;;36.40;23.72;99353.00;4993432;28;20505;-76
2021/06/07 07:18:57;;;;;;;2.88;2.17;;;;;;;35.31;23.79;99368.03;5000068;28;20044;-75
2021/06/07 07:21:22;;;;;;;2.60;2.20;;;;;;;35.46;24.02;99353.34;5011021;28;20543;-77
2021/06/07 07:23:48;;;;;;;2.60;1.80;;;;;;;33.73;25.66;99362.50;5007000;28;20093;-72
2021/06/07 07:26:14;;;;;;;2.50;2.28;;;;;;;34.13;26.09;99355.19;5009505;28;20038;-74
2021/06/07 07:28:41;;;;;;;2.42;2.13;;;;;;;35.21;25.36;99351.66;5000859;28;20042;-74
2021/06/07 07:31:08;;;;;;;3.50;1.73;;;;;;;35.29;24.51;99353.78;5001760;28;20035;-74
2021/06/07 07:33:38;;;;;;;;;;;;;;;34.43;25.82;99358.88;5014408;28;20045;-77
2021/06/07 07:36:06;;;;;;;4.55;1.77;;;;;;;32.67;28.01;99364.75;5012615;28;19952;-75
2021/06/07 07:38:33;;;;;;;15.02;2.50;;;;;;;32.36;28.56;99363.91;5013984;28;20045;-75
2021/06/07 07:40:59;;;;;;;;;;;;;;;32.16;28.59;99364.66;5013874;28;20034;-76
2021/06/07 07:43:25;;;;;;;9.70;2.00;;;;;;;30.99;31.01;99361.78;5010721;28;19916;-77
2021/06/07 07:45:51;;;;;;;3.37;2.07;;;;;;;31.96;30.67;99359.94;4995453;28;20080;-80
2021/06/07 07:48:17;;;;;;;1.93;1.50;;;;;;;30.47;30.57;99369.50;5001892;28;20046;-76
2021/06/07 07:50:44;;;;;;;4.00;1.80;;;;;;;31.21;30.32;99361.72;4999456;28;20065;-79
2021/06/07 07:53:09;;;;;;;;;;;;;;;31.82;29.93;99351.41;4993481;28;20042;-77
2021/06/07 07:55:35;;;;;;;2.20;2.00;;;;;;;32.84;27.86;99358.25;5004266;28;19915;-76
2021/06/07 07:58:06;;;;;;;2.03;1.58;;;;;;;31.70;29.19;99363.41;4998145;28;20309;-77
2021/06/07 08:00:32;;;;;;;2.70;1.65;;;;;;;29.30;32.24;99366.97;4994359;28;20038;-80
2021/06/07 08:03:01;;;;;;;3.15;2.20;;;;;;;30.62;31.11;99354.41;4997800;28;20030;-77
2021/06/07 08:05:27;;;;;;;3.17;2.20;;;;;;;30.65;31.34;99365.59;5012310;28;20038;-78
2021/06/07 08:07:53;;;;;;;3.22;2.00;;;;;;;29.41;32.28;99368.75;5005227;28;20103;-78
2021/06/07 08:10:19;;;;;;;3.47;2.47;;;;;;;28.42;33.88;99357.28;4992784;28;20049;-77
2021/06/07 08:12:46;;;;;;;5.13;2.63;;;;;;;29.46;33.62;99355.19;4993998;28;20038;-77
2021/06/07 08:15:12;;;;;;;4.40;2.72;;;;;;;30.79;32.15;99344.19;4995144;28;20105;-78
2021/06/07 08:17:39;;;;;;;3.20;2.90;;;;;;;32.91;28.93;99353.28;4981687;28;20049;-76
2021/06/07 08:20:08;;;;;;;6.05;3.75;;;;;;;32.80;28.24;99343.44;5004123;28;20038;-75
2021/06/07 08:22:34;;;;;;;4.28;2.60;;;;;;;32.13;29.35;99348.75;5001611;28;20046;-73
2021/06/07 08:25:00;;;;;;;5.30;2.83;;;;;;;30.37;31.26;99360.38;5003194;28;20038;-74
2021/06/07 08:27:47;;;;;;;3.28;2.95;;;;;;;30.25;31.49;99349.63;5002542;28;20058;-75
2021/06/07 08:30:33;;;;;;;3.40;2.35;;;;;;;30.54;31.54;99352.13;4999098;28;20048;-75
2021/06/07 08:32:59;;;;;;;2.65;1.85;;;;;;;29.44;32.82;99341.00;4985846;28;20084;-74
2021/06/07 08:35:25;;;;;;;3.75;2.92;;;;;;;30.92;30.43;99347.56;5003276;28;20030;-79
2021/06/07 08:37:51;;;;;;;5.28;3.90;;;;;;;31.70;29.18;99341.53;5007391;28;20742;-73
2021/06/07 08:40:17;;;;;;;5.18;3.47;;;;;;;31.26;30.58;99326.22;5014075;28;20039;-77
2021/06/07 08:42:46;;;;;;;3.22;2.45;;;;;;;31.66;29.79;99328.66;5000137;28;20391;-74
2021/06/07 08:45:18;;;;;;;2.90;2.60;;;;;;;30.41;31.46;99343.25;5000672;28;20037;-75
2021/06/07 08:47:49;;;;;;;6.18;2.92;;;;;;;30.60;31.84;99334.72;4999146;28;20360;-75
2021/06/07 08:50:27;;;;;;;3.25;2.95;;;;;;;30.41;31.11;99358.81;4999948;28;20080;-76
2021/06/07 08:52:53;;;;;;;4.43;3.08;;;;;;;30.74;30.60;99335.91;4996652;28;20361;-76
2021/06/07 08:55:22;;;;;;;5.40;2.55;;;;;;;30.38;31.30;99337.47;5009246;28;20332;-76
2021/06/07 08:57:50;;;;;;;5.68;3.10;;;;;;;29.24;33.04;99346.13;5018966;28;20085;-80
2021/06/07 09:00:19;;;;;;;3.22;2.78;;;;;;;30.37;31.52;99335.81;4993555;28;20371;-77
2021/06/07 09:03:05;;;;;;;5.43;2.90;;;;;;;31.55;29.71;99322.28;5004779;28;20022;-75
2021/06/07 09:05:32;;;;;;;3.30;2.78;;;;;;;32.52;28.72;99312.75;4999091;28;20088;-74
2021/06/07 09:08:04;;;;;;;3.23;2.90;;;;;;;33.76;27.29;99301.56;5003356;28;20050;-74
2021/06/07 09:10:33;;;;;;;2.92;2.05;;;;;;;32.15;29.30;99317.31;5014043;28;20041;-73
2021/06/07 09:13:03;;;;;;;3.20;2.58;;;;;;;30.49;31.21;99323.72;5000602;28;20045;-74
2021/06/07 09:15:50;;;;;;;4.18;1.70;;;;;;;29.45;31.78;99320.84;5004101;28;20049;-76
2021/06/07 09:18:17;;;;;;;;;;;;;;;29.19;32.24;99316.91;5011507;28;20121;-78
2021/06/07 09:20:44;;;;;;;2.95;2.10;;;;;;;28.56;33.02;99315.09;5010486;28;19919;-77
2021/06/07 09:23:14;;;;;;;4.63;2.80;;;;;;;30.17;31.17;99299.09;5010879;28;20780;-74
2021/06/07 09:25:45;;;;;;;5.03;3.20;;;;;;;31.74;29.44;99301.63;5011222;28;20092;-72
2021/06/07 09:28:18;;;;;;;4.55;2.65;;;;;;;33.47;26.99;99300.34;5010963;28;20049;-75
2021/06/07 09:30:48;;;;;;;5.47;2.30;;;;;;;31.26;29.23;99303.53;5011773;28;20120;-80
2021/06/07 09:33:25;;;;;;;5.32;2.78;;;;;;;30.70;30.82;99293.84;5012041;28;20367;-73
2021/06/07 09:36:27;;;;;;;3.00;2.20;;;;;;;32.26;28.87;99288.91;5012682;28;20049;-81
2021/06/07 09:39:06;;;;;;;2.38;2.00;;;;;;;32.22;28.09;99295.19;5011923;28;20489;-75
2021/06/07 09:41:47;;;;;;;2.45;2.05;;;;;;;30.31;29.93;99310.41;5012935;28;20107;-73
2021/06/07 09:44:30;;;;;;;4.25;3.13;;;;;;;28.50;32.97;99297.03;5012826;28;20038;-74
2021/06/07 09:47:19;;;;;;;3.90;2.50;;;;;;;28.03;34.17;99310.84;4994388;28;20423;-73
2021/06/07 09:49:53;;;;;;;4.25;2.22;;;;;;;28.69;32.63;99296.81;4999741;28;20038;-74
2021/06/07 09:52:43;;;;;;;3.03;2.17;;;;;;;29.40;31.78;99288.09;5009032;28;20049;-78
2021/06/07 09:55:17;;;;;;;2.97;2.13;;;;;;;28.65;33.37;99284.72;5003753;28;20057;-74
2021/06/07 09:57:55;;;;;;;2.55;1.80;;;;;;;29.89;31.64;99275.56;5002823;28;20026;-75
2021/06/07 10:00:52;;;;;;;2.85;2.00;;;;;;;31.20;29.35;99271.81;4999014;28;20058;-77
2021/06/07 10:03:29;;;;;;;3.45;1.80;;;;;;;31.43;28.87;99271.38;4998832;28;20058;-78
2021/06/07 10:05:58;;;;;;;3.13;1.70;;;;;;;31.70;28.75;99275.06;4997102;28;20056;-75
2021/06/07 10:08:26;;;;;;;2.28;1.80;;;;;;;32.25;27.18;99259.06;5000351;28;20085;-74
2021/06/07 10:10:54;;;;;;;2.42;1.50;;;;;;;31.72;27.48;99251.81;4971544;28;20042;-74
2021/06/07 10:13:20;;;;;;;2.53;1.70;;;;;;;29.83;30.03;99261.91;5004205;28;20092;-79
2021/06/07 10:15:47;;;;;;;3.88;1.90;;;;;;;29.59;31.43;99271.41;5012288;28;20417;-75
2021/06/07 10:18:21;;;;;;;3.35;1.90;;;;;;;28.19;33.08;99272.00;5012597;28;20073;-79
2021/06/07 10:20:54;;;;;;;2.00;1.80;;;;;;;26.82;35.94;99272.38;4997481;28;20030;-75
2021/06/07 10:23:20;;;;;;;3.63;1.95;;;;;;;25.83;37.90;99273.59;4993313;28;20041;-78
2021/06/07 10:25:47;;;;;;;2.00;1.80;;;;;;;25.50;38.53;99274.84;4995722;28;20038;-73
2021/06/07 10:28:13;;;;;;;2.75;1.90;;;;;;;25.07;39.48;99281.09;4999770;28;20054;-79
2021/06/07 10:30:42;;;;;;;2.38;1.67;;;;;;;24.83;39.70;99275.50;4995217;28;20042;-74
2021/06/07 10:33:38;;;;;;;3.10;2.03;;;;;;;24.63;40.40;99270.22;4999531;28;20050;-79
2021/06/07 10:36:22;;;;;;;2.97;2.53;;;;;;;24.45;41.46;99274.53;5005563;28;20181;-74
2021/06/07 10:38:50;;;;;;;4.47;2.30;;;;;;;24.25;41.80;99271.13;4993541;28;20057;-74
2021/06/07 10:41:19;;;;;;;;;;;;;;;24.15;41.91;99274.31;4992974;28;20506;-76
2021/06/07 10:43:47;;;;;;;4.90;3.30;;;;;;;24.03;42.67;99288.50;5012377;28;19935;-78
2021/06/07 10:46:22;;;;;;;5.85;2.60;;;;;;;23.83;43.51;99290.47;5013212;28;20060;-73
2021/06/07 10:48:52;;;;;;;5.43;2.67;;;;;;;23.60;45.10;99289.06;5013753;28;20076;-78
2021/06/07 10:51:23;;;;;;;2.45;2.10;;;;;;;23.37;45.83;99300.38;5015539;28;20046;-73
2021/06/07 10:53:53;;;;;;;3.35;2.40;;;;;;;23.24;47.48;99301.22;5015617;28;20100;-74
2021/06/07 10:56:29;;;;;;;5.15;3.45;;;;;;;23.02;48.33;99298.75;5015005;28;20042;-75
2021/06/07 10:58:57;;;;;;;4.43;3.28;;;;;;;22.72;48.59;99301.88;4996024;28;20081;-73
2021/06/07 11:01:47;;;;;;;5.10;2.88;;;;;;;22.49;48.79;99298.75;5003625;28;20104;-78
2021/06/07 11:04:13;;;;;;;3.97;2.70;;;;;;;22.32;50.07;99299.09;5001453;28;20071;-74
2021/06/07 11:06:51;;;;;;;6.22;2.42;;;;;;;22.13;52.31;99296.16;4983300;28;20156;-77
2021/06/07 11:09:18;;;;;;;4.47;2.83;;;;;;;22.02;52.41;99291.38;4985638;28;20066;-74
2021/06/07 11:11:47;;;;;;;4.88;2.47;;;;;;;21.98;52.88;99285.56;4984579;28;20530;-75
2021/06/07 11:14:13;;;;;;;4.45;2.28;;;;;;;21.81;53.33;99293.16;5003619;28;20423;-76
2021/06/07 11:16:42;;;;;;;3.30;2.20;;;;;;;21.88;53.65;99274.34;5003917;28;20081;-77
2021/06/07 11:19:13;;;;;;;4.03;2.53;;;;;;;21.95;54.17;99280.56;5003067;28;20077;-74
2021/06/07 11:22:05;;;;;;;4.18;3.33;;;;;;;22.04;53.85;99277.69;5005116;28;20090;-76
2021/06/07 11:24:34;;;;;;;5.28;2.30;;;;;;;22.05;52.45;99266.72;5003934;28;20094;-77
2021/06/07 11:27:03;;;;;;;2.75;2.42;;;;;;;22.26;52.83;99267.59;5003849;28;20073;-74
2021/06/07 11:29:29;;;;;;;2.92;2.10;;;;;;;22.60;52.09;99269.31;5004555;28;20046;-74
2021/06/07 11:31:58;;;;;;;2.25;1.90;;;;;;;22.97;50.82;99271.56;5006184;28;20038;-76
2021/06/07 11:34:48;;;;;;;2.78;2.42;;;;;;;23.10;52.45;99276.94;5005041;28;20046;-74
2021/06/07 11:37:34;;;;;;;1.98;1.88;;;;;;;23.05;51.11;99271.34;5014311;28;20034;-74